sim
Sign-in with your pilot id or email,
or register
Callsign
Passwort

Schedule Details

Flight Number: UAE510
Departure: Dubai International Airport (OMDB) at 00:20
Arrival: Delhi Indira Gandhi International Airport (VIDP) at 03:25
Route: Emirates Passenger Schedule. Enter filed route here before submitting Pirep.

Weather Information
Getting current METAR information for OMDB 271800Z 06004KT CAVOK 28/16 Q1014 NOSIG
Getting current METAR information for VIDP 271830Z 00000KT 2200 FU NSC 20/13 Q1013 NOSIG

Schedule Frequency

Route Map